This is the latest recevied weather packets stored in our database for station/object W4DHW-4. If no packets are shown the sender has not sent any weather packets the latest 1 day(s).
| Time | Temp. | Humidity | Pressure | Rain* | Wind** | Luminosity | Snow |
|---|---|---|---|---|---|---|---|
| 1836274696 | 17.22° C | 87% | 1020.4 hPa | 0 mm | 0.89 m/s, 302° | 0 W/m² | - |
| 1836274549 | 16.67° C | 88% | 1020.3 hPa | 0 mm | 0.45 m/s, 295° | 0 W/m² | - |
| 1836274394 | 17.22° C | 87% | 1020.4 hPa | 0 mm | 0.45 m/s, 298° | 0 W/m² | - |
| 1836274247 | 16.67° C | 88% | 1020.1 hPa | 0 mm | 1.34 m/s, 296° | 0 W/m² | - |
| 1836274092 | 17.22° C | 88% | 1020 hPa | 0 mm | 1.34 m/s, 298° | 0 W/m² | - |
| 1778046644 | 20.56° C | 50% | 1012 hPa | 0 mm | 0.45 m/s, 224° | 0 W/m² | - |
| 1778046342 | 20.56° C | 51% | 1012.3 hPa | 0 mm | 0.45 m/s, 258° | 0 W/m² | - |
| 1778046037 | 20.56° C | 50% | 1012.1 hPa | 0 mm | 0 m/s | 0 W/m² | - |
| 1778045736 | 20.56° C | 50% | 1012.3 hPa | 0 mm | 0 m/s | 0 W/m² | - |
| 1778045433 | 20.56° C | 50% | 1012 hPa | 0 mm | 0.45 m/s, 241° | 0 W/m² | - |
| 1778045132 | 20.56° C | 51% | 1012 hPa | 0 mm | 0 m/s | 0 W/m² | - |
| 1778044829 | 20.56° C | 51% | 1012.1 hPa | 0 mm | 0.45 m/s, 241° | 0 W/m² | - |
| 1778044526 | 20.56° C | 51% | 1012 hPa | 0 mm | 0.89 m/s, 186° | 0 W/m² | - |
| 1778044223 | 20° C | 51% | 1012.3 hPa | 0 mm | 1.34 m/s, 190° | 0 W/m² | - |
| 1778043921 | 20° C | 51% | 1012.3 hPa | 0 mm | 0.45 m/s, 230° | 0 W/m² | - |
| 1778043618 | 20.56° C | 50% | 1012.1 hPa | 0 mm | 1.34 m/s, 181° | 0 W/m² | - |
| 1778043314 | 20.56° C | 50% | 1012.5 hPa | 0 mm | 0.45 m/s, 224° | 0 W/m² | - |
| 1778043011 | 20° C | 50% | 1012.7 hPa | 0 mm | 0.45 m/s, 239° | 0 W/m² | - |
| 1778042709 | 20.56° C | 50% | 1012.5 hPa | 0 mm | 0.45 m/s, 253° | 0 W/m² | - |
| 1778042405 | 20° C | 50% | 1012.3 hPa | 0 mm | 1.34 m/s, 238° | 0 W/m² | - |
| 1778042102 | 20.56° C | 49% | 1012.6 hPa | 0 mm | 0.45 m/s, 235° | 0 W/m² | - |
| 1778041800 | 20.56° C | 49% | 1012.4 hPa | 0 mm | 0.45 m/s, 251° | 0 W/m² | - |
| 1778041495 | 20.56° C | 49% | 1012.1 hPa | 0 mm | 0 m/s | 0 W/m² | - |
| 1778041192 | 20.56° C | 48% | 1012.3 hPa | 0 mm | 0.45 m/s, 236° | 0 W/m² | - |
| 1778040890 | 21.11° C | 47% | 1012.3 hPa | 0 mm | 0.45 m/s, 261° | 0 W/m² | - |
* Rain latest hour (hover to see other rain measurements)
** Current wind speed in m/s (hover to see current wind gust speed)